Time;durP1;ratioP1;P1;durP2;ratioP2;P2;SDS_P1;SDS_P2;PMS_P1;PMS_P2;Temp;Humidity;BMP_temperature;BMP_pressure;BME280_temperature;BME280_humidity;BME280_pressure;Samples;Min_cycle;Max_cycle;Signal;HPM_P1;HPM_P2
2022/05/18 00:00:35;;;;;;;3.13;2.92;;;;;;;16.65;75.53;96962.13;5058361;28;20253;-49
2022/05/18 00:03:05;;;;;;;3.72;3.20;;;;;;;16.64;76.26;96964.97;5058257;28;20574;-50
2022/05/18 00:05:34;;;;;;;3.50;3.20;;;;;;;16.62;76.05;96962.47;5058445;28;20218;-50
2022/05/18 00:08:03;;;;;;;3.13;2.83;;;;;;;16.63;75.72;96963.31;5057765;28;20242;-50
2022/05/18 00:10:30;;;;;;;3.20;2.90;;;;;;;16.59;75.92;96968.16;5058200;28;20211;-50
2022/05/18 00:12:56;;;;;;;5.83;3.07;;;;;;;16.56;76.19;96970.34;5065318;28;20185;-49
2022/05/18 00:15:26;;;;;;;3.17;2.92;;;;;;;16.49;77.16;96972.84;5067618;28;20192;-49
2022/05/18 00:17:53;;;;;;;3.60;3.30;;;;;;;16.44;78.05;96964.50;5071732;28;20196;-48
2022/05/18 00:20:20;;;;;;;4.30;3.30;;;;;;;16.50;76.69;96969.19;5077348;28;20197;-49
2022/05/18 00:22:49;;;;;;;3.60;3.30;;;;;;;16.44;77.21;96970.69;5081146;28;20230;-50
2022/05/18 00:25:17;;;;;;;3.83;3.10;;;;;;;16.42;77.56;96966.53;5073458;28;20231;-49
2022/05/18 00:27:44;;;;;;;3.67;3.37;;;;;;;16.32;77.42;96972.06;5057037;28;20632;-50
2022/05/18 00:30:13;;;;;;;3.53;3.23;;;;;;;16.30;77.89;96963.38;5057150;28;20218;-50
2022/05/18 00:32:40;;;;;;;3.53;3.27;;;;;;;16.28;78.78;96972.56;5057400;28;20195;-50
2022/05/18 00:35:08;;;;;;;4.30;3.40;;;;;;;16.27;78.07;96968.22;5067510;28;20207;-50
2022/05/18 00:37:36;;;;;;;3.60;3.30;;;;;;;16.19;79.11;96968.25;5078630;28;20183;-51
2022/05/18 00:40:06;;;;;;;6.80;3.50;;;;;;;16.17;79.67;96971.09;5077985;28;20199;-50
2022/05/18 00:42:36;;;;;;;4.10;3.57;;;;;;;16.15;79.83;96973.09;5062220;28;20203;-50
2022/05/18 00:45:05;;;;;;;4.90;3.90;;;;;;;16.20;79.40;96969.91;5057718;28;20264;-50
2022/05/18 00:47:32;;;;;;;4.27;3.87;;;;;;;16.17;78.75;96967.59;5057792;28;20210;-49
2022/05/18 00:50:02;;;;;;;4.10;3.70;;;;;;;16.15;79.34;96969.59;5056414;28;20238;-50
2022/05/18 00:52:32;;;;;;;4.73;3.80;;;;;;;16.09;80.50;96970.25;5058380;28;20199;-50
2022/05/18 00:55:00;;;;;;;5.83;3.60;;;;;;;16.11;79.38;96977.13;5079278;28;20198;-50
2022/05/18 00:57:30;;;;;;;4.17;3.73;;;;;;;16.06;80.28;96967.94;5080410;28;20199;-50
2022/05/18 00:59:59;;;;;;;5.17;3.57;;;;;;;16.06;80.21;96976.78;5056930;28;20207;-50
2022/05/18 01:02:31;;;;;;;3.97;3.67;;;;;;;16.06;79.34;96965.25;5056578;28;20203;-49
2022/05/18 01:05:00;;;;;;;3.87;3.47;;;;;;;16.06;79.20;96971.44;5056591;28;20214;-50
2022/05/18 01:07:29;;;;;;;4.27;3.50;;;;;;;16.01;79.90;96975.63;5056527;28;20265;-49
2022/05/18 01:09:56;;;;;;;4.10;3.80;;;;;;;15.88;81.66;96976.13;5056374;28;20243;-49
2022/05/18 01:12:23;;;;;;;6.33;3.47;;;;;;;15.83;82.28;96973.13;5049544;28;20195;-49
2022/05/18 01:14:53;;;;;;;4.10;3.70;;;;;;;15.84;81.97;96977.44;5056754;28;20234;-50
2022/05/18 01:17:23;;;;;;;3.80;3.50;;;;;;;15.85;81.85;96982.63;5055679;28;20218;-51
2022/05/18 01:19:52;;;;;;;4.33;3.47;;;;;;;15.83;81.35;96978.47;5056793;28;20230;-50
2022/05/18 01:22:32;;;;;;;3.80;3.50;;;;;;;15.84;81.09;96980.13;5056063;28;20210;-50
2022/05/18 01:25:06;;;;;;;4.50;3.40;;;;;;;15.81;81.53;96983.97;5056081;28;20242;-49
2022/05/18 01:27:35;;;;;;;3.87;3.57;;;;;;;15.80;81.76;96987.63;5056288;28;20213;-49
2022/05/18 01:30:01;;;;;;;3.63;3.37;;;;;;;15.80;81.74;96984.94;5056155;28;20227;-49
2022/05/18 01:32:40;;;;;;;3.73;3.40;;;;;;;15.78;82.17;96988.78;5055977;28;20209;-48
2022/05/18 01:35:08;;;;;;;3.93;3.63;;;;;;;15.72;82.97;96994.81;5055995;28;20199;-50
2022/05/18 01:37:37;;;;;;;4.60;3.60;;;;;;;15.72;82.83;97000.13;5056098;28;20211;-50
2022/05/18 01:40:08;;;;;;;3.83;3.50;;;;;;;15.71;82.60;96996.63;5055841;28;20238;-50
2022/05/18 01:42:38;;;;;;;6.53;3.73;;;;;;;15.66;83.08;96996.28;5055803;28;20203;-51
2022/05/18 01:45:05;;;;;;;3.87;3.33;;;;;;;15.57;84.38;97001.78;5055810;28;20214;-50
2022/05/18 01:47:33;;;;;;;4.30;3.70;;;;;;;15.60;83.70;96999.63;5055859;28;20210;-50
2022/05/18 01:50:01;;;;;;;4.00;3.70;;;;;;;15.56;83.84;97003.59;5055894;28;20587;-50
2022/05/18 01:52:28;;;;;;;4.13;3.73;;;;;;;15.55;83.88;97015.28;5055751;28;20213;-49
2022/05/18 01:54:54;;;;;;;3.40;3.20;;;;;;;15.55;83.62;97007.28;5055853;28;20207;-50
2022/05/18 01:57:21;;;;;;;4.27;3.93;;;;;;;15.56;83.94;97006.28;5055806;28;20211;-50
2022/05/18 01:59:49;;;;;;;4.93;4.43;;;;;;;15.51;84.67;97013.94;5055847;28;20207;-49
2022/05/18 02:02:15;;;;;;;4.00;3.70;;;;;;;15.54;84.25;97016.28;5055821;28;20543;-50
2022/05/18 02:04:43;;;;;;;3.73;3.43;;;;;;;15.49;84.50;97015.09;5055720;28;20203;-51
2022/05/18 02:07:11;;;;;;;4.57;3.60;;;;;;;15.47;84.29;97020.56;5055788;28;20203;-49
2022/05/18 02:09:38;;;;;;;5.80;3.77;;;;;;;15.46;85.00;97016.22;5055054;28;20670;-50
2022/05/18 02:12:07;;;;;;;3.60;3.40;;;;;;;15.45;85.54;97014.56;5051196;28;20200;-50
2022/05/18 02:14:33;;;;;;;3.97;3.67;;;;;;;15.48;85.01;97022.22;5066821;28;20203;-49
2022/05/18 02:17:01;;;;;;;4.10;3.60;;;;;;;15.47;84.75;97019.72;5075870;28;20203;-50
2022/05/18 02:19:27;;;;;;;3.30;3.10;;;;;;;15.47;84.65;97033.91;5072219;28;20199;-50
2022/05/18 02:21:54;;;;;;;5.60;4.10;;;;;;;15.44;84.31;97023.56;5071147;28;20203;-49
2022/05/18 02:24:21;;;;;;;3.97;3.60;;;;;;;15.36;85.75;97031.53;5072218;28;20310;-50
2022/05/18 02:26:47;;;;;;;4.63;3.80;;;;;;;15.34;86.06;97033.50;5073870;28;20211;-49
2022/05/18 02:29:13;;;;;;;6.20;4.03;;;;;;;15.30;86.59;97035.66;5073548;28;20227;-49
2022/05/18 02:31:40;;;;;;;3.87;3.67;;;;;;;15.28;86.58;97028.84;5074341;28;20199;-50
2022/05/18 02:34:08;;;;;;;4.10;3.73;;;;;;;15.23;87.50;97039.97;5075306;28;20183;-49
2022/05/18 02:36:35;;;;;;;4.23;3.83;;;;;;;15.23;87.63;97033.84;5074989;28;20238;-49
2022/05/18 02:39:01;;;;;;;5.73;3.97;;;;;;;15.17;88.62;97037.13;5076199;28;20202;-49
2022/05/18 02:41:28;;;;;;;4.30;3.90;;;;;;;15.15;88.60;97039.97;5075801;28;20237;-50
2022/05/18 02:43:54;;;;;;;4.10;3.80;;;;;;;15.19;87.61;97040.50;5076610;28;20210;-50
2022/05/18 02:46:22;;;;;;;5.03;4.00;;;;;;;15.13;88.99;97041.13;5076876;28;20179;-49
2022/05/18 02:48:51;;;;;;;4.57;4.17;;;;;;;15.18;87.50;97046.81;5077077;28;20233;-50
2022/05/18 02:51:22;;;;;;;4.37;3.97;;;;;;;15.12;88.58;97044.78;5077919;28;20198;-49
2022/05/18 02:53:48;;;;;;;4.63;3.80;;;;;;;15.16;87.93;97046.16;5077494;28;20176;-50
2022/05/18 02:56:18;;;;;;;5.20;3.93;;;;;;;15.11;88.28;97051.09;5076815;28;20199;-50
2022/05/18 02:58:48;;;;;;;5.10;4.07;;;;;;;15.12;88.16;97050.13;5062249;28;20263;-49
2022/05/18 03:01:18;;;;;;;4.23;3.90;;;;;;;15.11;88.08;97048.44;5064383;28;20202;-49
2022/05/18 03:03:45;;;;;;;4.30;4.00;;;;;;;15.06;89.27;97056.06;5066104;28;20234;-50
2022/05/18 03:06:14;;;;;;;4.80;4.37;;;;;;;14.99;89.68;97055.03;5071723;28;20185;-49
2022/05/18 03:08:43;;;;;;;4.50;4.10;;;;;;;15.02;89.11;97060.06;5071495;28;20203;-49
2022/05/18 03:11:12;;;;;;;5.50;4.20;;;;;;;15.03;88.82;97056.41;5057800;28;20218;-49
2022/05/18 03:13:39;;;;;;;4.53;4.13;;;;;;;15.01;90.23;97058.41;5071450;28;20207;-50
2022/05/18 03:16:07;;;;;;;4.00;3.77;;;;;;;14.97;89.68;97057.88;5070199;28;20206;-50
2022/05/18 03:18:35;;;;;;;5.03;4.20;;;;;;;14.88;90.47;97053.50;5075050;28;20202;-50
2022/05/18 03:23:47;;;;;;;5.20;4.23;;;;;;;14.96;89.93;97061.53;5076580;28;20229;-50
2022/05/18 03:26:15;;;;;;;7.13;4.67;;;;;;;14.98;89.60;97058.72;5077771;28;20203;-50
2022/05/18 03:28:43;;;;;;;4.37;4.07;;;;;;;14.91;90.66;97061.19;5077109;28;20199;-49
2022/05/18 03:31:10;;;;;;;4.37;3.97;;;;;;;14.93;89.79;97062.69;5068896;28;20206;-50
2022/05/18 03:33:38;;;;;;;4.40;4.00;;;;;;;14.97;89.48;97065.88;5065476;28;20207;-49
2022/05/18 03:36:05;;;;;;;4.30;4.00;;;;;;;14.99;89.29;97060.38;5063596;28;20203;-50
2022/05/18 03:38:32;;;;;;;5.27;4.17;;;;;;;14.93;90.07;97062.69;5058459;28;20208;-50
2022/05/18 03:41:00;;;;;;;4.50;4.10;;;;;;;14.90;90.79;97067.50;5057369;28;20211;-49
2022/05/18 03:43:28;;;;;;;4.97;4.57;;;;;;;14.79;91.24;97067.78;5064295;28;20207;-50
2022/05/18 03:45:55;;;;;;;4.53;4.23;;;;;;;14.75;93.02;97069.94;5066297;28;20230;-49
2022/05/18 03:48:22;;;;;;;5.23;4.70;;;;;;;14.69;93.44;97075.06;5074733;28;20271;-50
2022/05/18 03:50:50;;;;;;;5.20;4.70;;;;;;;14.76;92.40;97076.94;5074562;28;20245;-50
2022/05/18 03:53:17;;;;;;;4.47;4.10;;;;;;;14.72;92.49;97086.22;5073676;28;20198;-50
2022/05/18 03:55:44;;;;;;;4.87;4.40;;;;;;;14.75;92.26;97085.91;5073585;28;20203;-49
2022/05/18 03:58:13;;;;;;;4.53;4.20;;;;;;;14.76;92.17;97084.91;5060573;28;20238;-50
2022/05/18 04:00:40;;;;;;;4.57;4.23;;;;;;;14.80;92.46;97088.09;5072873;28;20218;-50
2022/05/18 04:03:08;;;;;;;4.67;4.20;;;;;;;14.87;91.02;97089.97;5072608;28;20199;-50
2022/05/18 04:05:37;;;;;;;4.43;4.10;;;;;;;14.93;91.00;97088.50;5072760;28;20203;-50
2022/05/18 04:08:04;;;;;;;5.20;4.20;;;;;;;14.93;91.09;97089.31;5072509;28;20199;-50
2022/05/18 04:10:30;;;;;;;5.00;4.50;;;;;;;14.92;91.44;97097.47;5071420;28;20227;-50
2022/05/18 04:12:57;;;;;;;7.03;4.67;;;;;;;14.92;92.10;97098.31;5063003;28;20203;-50
2022/05/18 04:15:27;;;;;;;5.80;5.23;;;;;;;14.92;92.38;97103.63;5073675;28;20651;-50
2022/05/18 04:17:54;;;;;;;5.30;4.57;;;;;;;14.94;92.41;97104.31;5074778;28;20202;-50
2022/05/18 04:20:23;;;;;;;5.40;3.90;;;;;;;15.02;91.98;97094.69;5072755;28;20199;-49
2022/05/18 04:22:50;;;;;;;6.30;4.40;;;;;;;15.05;92.41;97097.03;5072167;28;20214;-49
2022/05/18 04:25:20;;;;;;;4.80;4.07;;;;;;;15.15;91.95;97108.41;5072761;28;20241;-50
2022/05/18 04:27:47;;;;;;;4.80;4.40;;;;;;;15.30;91.57;97101.47;5072602;28;20636;-50
2022/05/18 04:30:14;;;;;;;4.90;4.40;;;;;;;15.47;91.20;97111.19;5076131;28;20223;-50
2022/05/18 04:32:42;;;;;;;9.33;8.43;;;;;;;15.58;90.71;97104.75;5071730;28;20206;-50
2022/05/18 04:35:11;;;;;;;5.80;4.50;;;;;;;15.89;89.92;97109.31;5072879;28;20207;-50
2022/05/18 04:37:38;;;;;;;4.43;4.00;;;;;;;16.39;87.13;97111.00;5072319;28;20205;-50
2022/05/18 04:40:07;;;;;;;4.93;4.43;;;;;;;17.03;84.06;97119.94;5075504;28;20199;-51
2022/05/18 04:42:33;;;;;;;5.40;4.47;;;;;;;17.29;80.77;97120.50;5076753;28;20203;-49
2022/05/18 04:45:00;;;;;;;5.03;4.40;;;;;;;17.27;82.23;97117.19;5076923;28;20214;-50
2022/05/18 04:47:27;;;;;;;6.70;3.92;;;;;;;17.72;79.03;97122.69;5074790;28;20217;-51
2022/05/18 04:49:57;;;;;;;4.40;4.00;;;;;;;17.67;80.68;97125.06;5073341;28;20675;-50
2022/05/18 04:52:23;;;;;;;4.40;3.95;;;;;;;17.76;80.27;97123.16;5059842;28;20218;-50
2022/05/18 04:54:50;;;;;;;4.65;4.25;;;;;;;18.04;78.61;97127.00;5057627;28;20211;-51
2022/05/18 04:57:17;;;;;;;6.13;3.90;;;;;;;17.89;79.20;97129.59;5058040;28;20273;-50
2022/05/18 04:59:44;;;;;;;4.78;3.90;;;;;;;18.29;77.76;97135.69;5057650;28;20265;-50
2022/05/18 05:02:11;;;;;;;5.72;5.20;;;;;;;18.76;75.84;97139.00;5056918;28;20207;-49
2022/05/18 05:04:38;;;;;;;4.40;4.05;;;;;;;19.03;74.88;97144.75;5056585;28;20207;-50
2022/05/18 05:07:06;;;;;;;6.80;4.65;;;;;;;19.00;72.32;97145.97;5064189;28;20187;-53
2022/05/18 05:09:32;;;;;;;4.70;4.40;;;;;;;19.00;73.51;97147.81;5076073;28;20225;-51
2022/05/18 05:11:59;;;;;;;5.68;4.47;;;;;;;18.95;73.85;97147.56;5063021;28;20549;-50
2022/05/18 05:14:26;;;;;;;6.63;4.80;;;;;;;19.22;70.90;97154.97;5075065;28;20238;-50
2022/05/18 05:16:53;;;;;;;7.40;5.18;;;;;;;19.14;73.09;97157.72;5061552;28;20207;-49
2022/05/18 05:19:22;;;;;;;6.40;4.75;;;;;;;19.40;70.88;97158.13;5043981;28;20245;-50
2022/05/18 05:21:48;;;;;;;6.18;4.88;;;;;;;19.53;70.24;97150.25;5056920;28;20273;-50
2022/05/18 05:24:17;;;;;;;5.30;4.90;;;;;;;19.65;68.32;97156.00;5056086;28;20243;-50
2022/05/18 05:26:44;;;;;;;8.57;4.63;;;;;;;19.65;69.64;97159.50;5054659;28;20207;-50
2022/05/18 05:29:11;;;;;;;5.03;4.57;;;;;;;19.83;69.11;97165.31;5044673;28;20579;-49
2022/05/18 05:31:38;;;;;;;7.18;5.10;;;;;;;20.11;68.14;97165.44;5055960;28;20238;-49
2022/05/18 05:34:06;;;;;;;6.20;4.70;;;;;;;20.28;67.71;97168.72;5055780;28;20207;-50
2022/05/18 05:36:33;;;;;;;4.88;4.47;;;;;;;20.39;66.42;97175.47;5055995;28;20290;-50
2022/05/18 05:39:00;;;;;;;5.28;4.78;;;;;;;20.48;67.66;97177.81;5054641;28;20234;-50
2022/05/18 05:41:28;;;;;;;5.90;5.25;;;;;;;20.53;65.58;97178.09;5056595;28;20641;-50
2022/05/18 05:43:54;;;;;;;5.13;4.72;;;;;;;20.79;63.56;97174.81;5056233;28;20221;-50
2022/05/18 05:46:21;;;;;;;15.93;6.18;;;;;;;20.98;62.63;97178.66;5056311;28;20202;-51
2022/05/18 05:48:48;;;;;;;7.72;4.55;;;;;;;21.27;62.27;97165.91;5051190;28;20211;-50
2022/05/18 05:51:15;;;;;;;4.93;4.43;;;;;;;21.33;61.89;97172.34;5052062;28;20679;-52
2022/05/18 05:53:43;;;;;;;4.68;4.13;;;;;;;21.63;62.40;97170.25;5045247;28;20230;-50
2022/05/18 05:56:10;;;;;;;4.85;4.22;;;;;;;21.89;61.62;97166.84;5050167;28;20657;-49
2022/05/18 05:58:39;;;;;;;5.05;4.63;;;;;;;21.99;59.24;97172.72;5045478;28;20225;-51
2022/05/18 06:01:07;;;;;;;5.00;4.50;;;;;;;21.95;60.33;97174.16;5055976;28;20200;-50
2022/05/18 06:03:39;;;;;;;5.10;4.57;;;;;;;22.54;59.72;97175.13;5055996;28;20215;-50
2022/05/18 06:06:08;;;;;;;7.72;5.00;;;;;;;22.15;57.66;97175.03;5055964;28;20195;-50
2022/05/18 06:08:36;;;;;;;5.90;4.53;;;;;;;22.19;57.99;97170.91;5056112;28;20203;-50
2022/05/18 06:11:03;;;;;;;6.13;5.10;;;;;;;22.56;58.25;97173.09;5056013;28;20230;-50
2022/05/18 06:13:31;;;;;;;5.50;4.82;;;;;;;22.70;57.60;97177.50;5050132;28;20199;-49
2022/05/18 06:16:07;;;;;;;5.45;4.88;;;;;;;22.97;55.60;97172.94;5050160;28;20211;-51
2022/05/18 06:18:35;;;;;;;5.65;4.10;;;;;;;23.14;54.69;97170.63;5050532;28;20217;-49
2022/05/18 06:21:02;;;;;;;8.20;5.05;;;;;;;23.19;53.94;97168.13;5058235;28;20235;-50
2022/05/18 06:23:28;;;;;;;6.28;4.65;;;;;;;23.48;54.04;97167.72;5055375;28;20214;-50
2022/05/18 06:25:59;;;;;;;5.20;4.70;;;;;;;23.72;53.58;97167.03;5055015;28;20683;-50
2022/05/18 06:28:26;;;;;;;6.13;4.97;;;;;;;23.63;54.36;97170.19;5055870;28;20202;-50
2022/05/18 06:30:52;;;;;;;5.18;4.53;;;;;;;23.63;52.68;97168.28;5059051;28;20314;-50
2022/05/18 06:33:21;;;;;;;5.00;4.60;;;;;;;23.90;53.00;97165.50;5062638;28;20272;-50
2022/05/18 06:35:51;;;;;;;5.85;4.45;;;;;;;24.04;51.90;97167.09;5062809;28;20304;-51
2022/05/18 06:38:18;;;;;;;8.13;5.07;;;;;;;24.19;53.67;97165.81;5058083;28;20290;-49
2022/05/18 06:43:29;;;;;;;9.73;5.60;;;;;;;24.29;52.27;97168.06;5060237;28;20201;-50
2022/05/18 06:45:58;;;;;;;5.72;5.22;;;;;;;24.03;51.94;97168.13;5056148;28;20791;-51
2022/05/18 06:48:27;;;;;;;5.70;4.85;;;;;;;24.35;53.57;97169.88;5042720;28;20537;-50
2022/05/18 06:50:53;;;;;;;6.22;4.95;;;;;;;24.54;52.15;97173.53;5055260;28;20235;-51
2022/05/18 06:53:20;;;;;;;6.55;5.13;;;;;;;24.43;51.00;97166.94;5055130;28;20203;-50
2022/05/18 06:55:47;;;;;;;6.43;5.10;;;;;;;24.87;49.68;97173.31;5055577;28;20210;-51
2022/05/18 06:58:14;;;;;;;8.80;4.80;;;;;;;24.85;52.45;97170.00;5053618;28;20211;-50
2022/05/18 07:00:40;;;;;;;6.00;5.40;;;;;;;25.02;49.92;97163.81;5054916;28;20203;-52
2022/05/18 07:03:07;;;;;;;14.27;5.47;;;;;;;24.87;50.44;97162.50;5054844;28;20214;-51
2022/05/18 07:05:38;;;;;;;5.53;4.75;;;;;;;25.26;51.02;97165.66;5055007;28;20289;-51
2022/05/18 07:08:06;;;;;;;5.50;4.93;;;;;;;25.74;50.97;97171.28;5054948;28;20195;-50
2022/05/18 07:10:32;;;;;;;8.07;5.40;;;;;;;25.33;49.33;97171.03;5054553;28;20675;-50
2022/05/18 07:12:59;;;;;;;5.85;5.07;;;;;;;25.62;49.09;97173.06;5054767;28;20210;-50
2022/05/18 07:15:25;;;;;;;6.68;5.25;;;;;;;25.79;48.87;97169.75;5054948;28;20203;-50
2022/05/18 07:17:52;;;;;;;5.20;4.50;;;;;;;25.96;47.86;97166.22;5054539;28;20640;-51
2022/05/18 07:20:19;;;;;;;5.00;4.60;;;;;;;25.98;49.80;97171.41;5054941;28;20233;-51
2022/05/18 07:22:46;;;;;;;7.50;4.90;;;;;;;25.89;46.85;97165.47;5054843;28;20219;-49
2022/05/18 07:25:13;;;;;;;6.63;5.03;;;;;;;25.81;47.81;97160.34;5063593;28;20235;-50
2022/05/18 07:27:41;;;;;;;8.05;4.85;;;;;;;26.07;49.07;97159.22;5072157;28;20207;-50
2022/05/18 07:30:13;;;;;;;6.38;4.63;;;;;;;26.43;47.75;97163.75;5070251;28;20211;-51
2022/05/18 07:32:39;;;;;;;8.25;4.60;;;;;;;26.60;45.95;97160.16;5062790;28;20207;-51
2022/05/18 07:35:06;;;;;;;4.70;4.30;;;;;;;26.41;45.73;97165.88;5061769;28;20223;-50
2022/05/18 07:37:33;;;;;;;6.70;4.60;;;;;;;26.68;48.83;97158.97;5055281;28;20538;-51
2022/05/18 07:40:01;;;;;;;6.00;4.30;;;;;;;26.81;45.92;97160.69;5054286;28;20231;-51
2022/05/18 07:42:28;;;;;;;5.10;3.92;;;;;;;26.80;47.61;97156.31;5054369;28;20214;-49
2022/05/18 07:44:54;;;;;;;5.18;3.78;;;;;;;26.79;45.28;97157.34;5053960;28;20210;-51
2022/05/18 07:47:28;;;;;;;10.60;4.22;;;;;;;26.66;46.33;97158.41;5054159;28;20269;-50
2022/05/18 07:49:55;;;;;;;5.25;4.15;;;;;;;27.02;44.62;97163.72;5054397;28;20194;-50
2022/05/18 07:52:23;;;;;;;7.55;4.30;;;;;;;26.98;45.48;97158.97;5054303;28;20241;-50
2022/05/18 07:54:50;;;;;;;4.55;4.03;;;;;;;26.82;45.59;97156.91;5040621;28;20211;-51
2022/05/18 07:57:19;;;;;;;3.80;3.30;;;;;;;27.08;44.20;97154.63;5054075;28;20203;-50
2022/05/18 07:59:46;;;;;;;6.82;3.58;;;;;;;27.40;44.61;97155.09;5054293;28;20210;-50
2022/05/18 08:02:12;;;;;;;5.65;3.53;;;;;;;27.65;44.38;97158.41;5054919;28;20200;-50
2022/05/18 08:04:40;;;;;;;3.90;3.60;;;;;;;27.46;45.32;97156.06;5045147;28;20214;-50
2022/05/18 08:07:06;;;;;;;4.22;3.85;;;;;;;27.80;45.87;97157.09;5057682;28;20207;-51
2022/05/18 08:15:05;;;;;;;6.38;3.83;;;;;;;27.46;45.22;97148.75;5057308;28;20218;-51
2022/05/18 08:15:07;;;;;;;3.80;3.30;;;;;;;27.91;43.15;97151.66;5062441;28;20249;-51
2022/05/18 08:17:34;;;;;;;3.83;3.28;;;;;;;27.71;41.81;97148.47;5062564;28;20211;-50
2022/05/18 08:20:05;;;;;;;4.45;3.17;;;;;;;27.74;43.80;97149.91;5067144;28;20218;-52
2022/05/18 08:22:32;;;;;;;5.13;3.25;;;;;;;27.68;42.36;97147.06;5050993;28;20208;-50
2022/05/18 08:24:59;;;;;;;8.73;3.30;;;;;;;27.93;41.95;97143.22;5064118;28;20329;-51
2022/05/18 08:27:26;;;;;;;5.60;3.40;;;;;;;28.11;41.87;97140.38;5070168;28;20211;-51
2022/05/18 08:30:00;;;;;;;3.83;3.40;;;;;;;28.05;43.43;97142.16;5055713;28;20218;-51
2022/05/18 08:32:26;;;;;;;3.95;3.38;;;;;;;28.00;41.32;97136.59;5069001;28;20207;-51
2022/05/18 08:34:54;;;;;;;6.53;3.40;;;;;;;28.10;44.04;97136.81;5067334;28;20207;-51
2022/05/18 08:37:22;;;;;;;5.72;3.75;;;;;;;28.46;42.96;97132.91;5066026;28;20211;-50
2022/05/18 08:39:49;;;;;;;6.10;3.53;;;;;;;28.66;39.71;97130.53;5065125;28;20238;-49
2022/05/18 08:42:15;;;;;;;3.75;3.30;;;;;;;28.73;40.68;97132.31;5058853;28;20252;-50
2022/05/18 08:44:43;;;;;;;5.57;3.25;;;;;;;28.70;40.22;97132.81;5057060;28;20211;-51
2022/05/18 08:47:12;;;;;;;6.43;3.28;;;;;;;28.98;40.75;97132.75;5056608;28;20207;-50
2022/05/18 08:49:42;;;;;;;4.47;3.60;;;;;;;28.85;40.73;97135.78;5056953;28;20234;-50
2022/05/18 08:52:26;;;;;;;6.85;3.60;;;;;;;28.69;40.48;97140.16;5056876;28;20690;-49
2022/05/18 08:54:57;;;;;;;4.25;3.05;;;;;;;28.86;38.86;97130.09;5043921;28;20202;-50
2022/05/18 08:57:28;;;;;;;3.13;2.92;;;;;;;28.94;40.29;97132.44;5057473;28;20207;-49
2022/05/18 08:59:57;;;;;;;4.13;3.00;;;;;;;29.08;40.41;97132.91;5056030;28;20207;-51
2022/05/18 09:02:28;;;;;;;6.47;3.60;;;;;;;29.02;37.98;97126.53;5056630;28;20211;-50
2022/05/18 09:04:57;;;;;;;6.22;3.22;;;;;;;29.09;40.60;97134.53;5056689;28;20199;-51
2022/05/18 09:07:25;;;;;;;7.18;3.60;;;;;;;28.93;37.87;97128.03;5056395;28;20545;-51
2022/05/18 09:12:39;;;;;;;3.67;3.33;;;;;;;29.48;37.94;97130.81;5056393;28;20225;-50
2022/05/18 09:15:12;;;;;;;5.30;3.25;;;;;;;29.47;37.65;97128.38;5054966;28;20206;-50
2022/05/18 09:17:45;;;;;;;4.97;3.40;;;;;;;29.17;37.93;97125.97;5042968;28;20628;-50
2022/05/18 09:20:15;;;;;;;4.40;3.50;;;;;;;29.25;38.78;97125.56;5056360;28;20206;-49
2022/05/18 09:22:54;;;;;;;4.95;3.30;;;;;;;29.36;38.04;97121.94;5056605;28;20195;-51
2022/05/18 09:25:27;;;;;;;3.15;2.95;;;;;;;29.70;37.88;97130.03;5056127;28;20568;-51
2022/05/18 09:28:05;;;;;;;5.15;3.45;;;;;;;29.25;37.82;97125.56;5056420;28;20202;-51
2022/05/18 09:30:38;;;;;;;6.93;3.60;;;;;;;29.21;38.65;97124.41;5056175;28;20203;-52
2022/05/18 09:33:16;;;;;;;7.40;3.67;;;;;;;29.53;38.79;97128.19;5055705;28;20203;-52
2022/05/18 09:36:05;;;;;;;5.75;3.85;;;;;;;29.42;40.57;97120.94;5055789;28;20547;-50
2022/05/18 09:38:35;;;;;;;6.32;3.70;;;;;;;29.78;40.91;97118.69;5057066;28;20191;-49
2022/05/18 09:41:05;;;;;;;6.47;3.30;;;;;;;29.51;39.91;97122.13;5068941;28;20207;-52
2022/05/18 09:43:36;;;;;;;4.50;4.10;;;;;;;29.45;39.57;97116.88;5069861;28;20218;-51
2022/05/18 09:46:05;;;;;;;4.63;3.92;;;;;;;29.43;39.89;97110.84;5057423;28;20199;-50
2022/05/18 09:48:36;;;;;;;4.90;3.97;;;;;;;29.63;38.58;97119.31;5057421;28;20276;-51
2022/05/18 09:51:02;;;;;;;4.80;4.38;;;;;;;29.33;40.34;97117.00;5056419;28;20255;-49
2022/05/18 09:53:29;;;;;;;4.32;3.90;;;;;;;29.39;40.45;97105.09;5056734;28;20214;-51
2022/05/18 09:55:56;;;;;;;4.20;3.90;;;;;;;29.10;40.59;97100.78;5055503;28;20238;-50
2022/05/18 09:58:25;;;;;;;4.50;3.53;;;;;;;29.40;41.96;97104.03;5055726;28;20678;-50
2022/05/18 10:07:27;;;;;;;3.55;3.25;;;;;;;29.82;39.85;97095.28;5055720;28;20239;-50
2022/05/18 10:09:41;;;;;;;3.65;3.42;;;;;;;29.45;39.81;97098.63;5043372;28;20627;-51
2022/05/18 10:12:17;;;;;;;3.85;2.88;;;;;;;29.74;39.43;97095.72;5054305;28;20592;-50
2022/05/18 10:14:47;;;;;;;3.55;3.10;;;;;;;29.71;36.30;97097.06;5055789;28;20195;-49
2022/05/18 10:17:14;;;;;;;4.53;3.17;;;;;;;29.82;37.71;97087.94;5055625;28;20207;-50
2022/05/18 10:19:46;;;;;;;3.92;2.88;;;;;;;30.08;38.85;97086.34;5055706;28;20203;-50
2022/05/18 10:22:19;;;;;;;5.32;3.15;;;;;;;30.32;39.23;97085.00;5055322;28;20199;-52
2022/05/18 10:24:51;;;;;;;3.30;3.00;;;;;;;30.55;41.46;97079.25;5055065;28;20230;-50
2022/05/18 10:27:22;;;;;;;4.63;3.42;;;;;;;30.43;38.23;97089.47;5054096;28;20207;-51
2022/05/18 10:30:08;;;;;;;3.50;2.85;;;;;;;30.68;36.86;97071.72;5054279;28;20199;-51
2022/05/18 10:32:35;;;;;;;3.13;2.83;;;;;;;30.65;38.96;97077.66;5054901;28;20217;-51
2022/05/18 10:35:04;;;;;;;3.67;3.00;;;;;;;30.45;35.39;97073.69;5055168;28;20539;-52
2022/05/18 10:37:33;;;;;;;3.30;3.00;;;;;;;30.57;35.52;97068.88;5054645;28;20218;-51
2022/05/18 10:40:02;;;;;;;4.15;3.08;;;;;;;30.35;37.29;97070.84;5055468;28;20203;-50
2022/05/18 10:42:31;;;;;;;3.10;2.90;;;;;;;30.21;35.20;97064.13;5054807;28;20199;-50
2022/05/18 10:45:03;;;;;;;3.25;2.95;;;;;;;29.97;36.01;97062.78;5054990;28;20203;-50
2022/05/18 10:47:32;;;;;;;3.53;3.17;;;;;;;29.79;35.74;97060.34;5055359;28;20611;-49
2022/05/18 10:50:25;;;;;;;3.35;3.05;;;;;;;30.04;35.55;97063.41;5055147;28;20723;-51
2022/05/18 10:52:54;;;;;;;4.05;2.58;;;;;;;30.42;37.40;97057.84;5054956;28;20225;-51
2022/05/18 10:55:22;;;;;;;2.97;2.67;;;;;;;30.01;34.22;97051.09;5055461;28;20207;-52
2022/05/18 10:57:58;;;;;;;4.30;2.90;;;;;;;30.08;34.60;97059.06;5054833;28;20293;-51
2022/05/18 11:00:29;;;;;;;4.15;2.85;;;;;;;30.41;35.49;97042.53;5055177;28;20186;-52
2022/05/18 11:03:00;;;;;;;2.53;2.33;;;;;;;30.58;36.07;97037.75;5054155;28;20214;-51
2022/05/18 11:05:38;;;;;;;2.65;2.40;;;;;;;30.39;33.48;97039.22;5055177;28;20199;-50
2022/05/18 11:08:08;;;;;;;2.60;2.40;;;;;;;30.85;34.27;97036.91;5055106;28;20206;-51
2022/05/18 11:10:42;;;;;;;2.70;2.50;;;;;;;31.26;34.24;97033.38;5054747;28;20265;-51
2022/05/18 11:13:11;;;;;;;5.68;2.80;;;;;;;31.15;33.29;97026.19;5054449;28;20559;-51
2022/05/18 11:15:43;;;;;;;3.65;2.55;;;;;;;31.09;32.30;97024.53;5054729;28;20207;-51
2022/05/18 11:18:16;;;;;;;2.80;2.60;;;;;;;30.81;33.97;97019.38;5054791;28;20195;-51
2022/05/18 11:20:59;;;;;;;7.07;2.80;;;;;;;30.58;34.02;97015.94;5054659;28;20195;-51
2022/05/18 11:23:34;;;;;;;2.60;2.47;;;;;;;30.69;34.96;97010.53;5055034;28;20586;-52
2022/05/18 11:26:16;;;;;;;2.47;2.28;;;;;;;30.77;32.72;97008.16;5054725;28;20763;-50
2022/05/18 11:28:50;;;;;;;4.90;2.40;;;;;;;30.99;32.27;97021.72;5054474;28;20210;-50
2022/05/18 11:31:40;;;;;;;3.88;2.50;;;;;;;30.64;33.31;97013.25;5054857;28;20203;-50
2022/05/18 11:34:18;;;;;;;4.50;2.90;;;;;;;30.50;33.78;97008.22;5043762;28;20635;-51
2022/05/18 11:36:59;;;;;;;3.65;2.65;;;;;;;30.81;35.70;97008.47;5055182;28;20195;-51
2022/05/18 11:39:34;;;;;;;3.03;2.60;;;;;;;30.79;34.52;97007.88;5058101;28;20662;-51
2022/05/18 11:42:26;;;;;;;5.95;2.92;;;;;;;30.60;33.05;97000.13;5046216;28;20187;-51
2022/05/18 11:45:01;;;;;;;3.85;2.72;;;;;;;30.32;31.86;97000.41;5052877;28;20202;-51
2022/05/18 11:47:39;;;;;;;4.75;2.60;;;;;;;30.36;33.56;96985.13;5058336;28;20202;-52
2022/05/18 11:50:14;;;;;;;3.65;2.42;;;;;;;30.43;34.15;96990.44;5047250;28;20264;-52
2022/05/18 11:52:51;;;;;;;3.53;2.20;;;;;;;30.74;34.91;96991.47;5076387;28;20554;-50
2022/05/18 11:55:26;;;;;;;3.40;2.33;;;;;;;30.68;31.33;96987.06;5073446;28;20206;-50
2022/05/18 11:58:03;;;;;;;2.72;2.30;;;;;;;30.79;30.75;96983.31;5066991;28;20202;-51
2022/05/18 12:00:46;;;;;;;5.13;2.25;;;;;;;30.97;31.78;96986.47;5064781;28;20214;-50